Time;durP1;ratioP1;P1;durP2;ratioP2;P2;SDS_P1;SDS_P2;PMS_P1;PMS_P2;Temp;Humidity;BMP_temperature;BMP_pressure;BME280_temperature;BME280_humidity;BME280_pressure;Samples;Min_cycle;Max_cycle;Signal;HPM_P1;HPM_P2
2022/01/28 00:02:25;;;;;;;;;42.33;34.00;;;;;8.96;72.20;102639.41;5018390;28;45310;-69
2022/01/28 00:04:52;;;;;;;;;41.33;36.00;;;;;10.73;72.50;102919.50;5012080;28;45459;-70
2022/01/28 00:07:18;;;;;;;;;38.33;33.00;;;;;10.65;72.36;102909.34;5016844;28;46440;-69
2022/01/28 00:09:43;;;;;;;;;44.00;32.67;;;;;9.91;72.15;102779.00;5017479;28;45219;-70
2022/01/28 00:12:10;;;;;;;;;37.00;32.00;;;;;10.26;72.35;102837.25;5016134;28;45526;-70
2022/01/28 00:14:46;;;;;;;;;41.67;35.00;;;;;10.75;72.19;102928.25;4998695;28;45440;-71
2022/01/28 00:38:37;;;;;;;;;45.67;34.67;;;;;10.81;72.61;102940.31;5017686;28;45656;-69
2022/01/28 00:41:03;;;;;;;;;38.33;31.33;;;;;10.74;72.34;102936.31;5017341;28;45357;-70
2022/01/28 00:43:28;;;;;;;;;37.00;33.33;;;;;10.82;72.16;102955.38;5017821;28;45325;-69
2022/01/28 00:45:53;;;;;;;;;35.33;30.67;;;;;10.69;72.89;102943.72;5017715;28;45249;-70
2022/01/28 00:48:19;;;;;;;;;38.67;31.67;;;;;10.52;72.52;102911.00;5011480;28;47051;-71
2022/01/28 00:50:45;;;;;;;;;41.67;32.33;;;;;10.50;72.42;102902.25;5018622;28;45285;-70
2022/01/28 00:53:11;;;;;;;;;41.67;34.00;;;;;10.76;72.20;102942.41;5018369;28;45448;-69
2022/01/28 00:55:37;;;;;;;;;36.67;33.00;;;;;10.83;72.32;102962.41;4999699;28;45543;-70
2022/01/28 00:58:03;;;;;;;;;37.67;34.00;;;;;10.49;72.35;102905.00;5016866;28;46699;-70
2022/01/28 01:00:30;;;;;;;;;32.33;30.00;;;;;10.81;72.48;102961.59;5032265;28;45525;-69
2022/01/28 01:02:56;;;;;;;;;36.33;32.67;;;;;10.69;72.70;102949.91;5011302;28;45503;-70
2022/01/28 01:05:22;;;;;;;;;42.67;35.67;;;;;10.77;72.65;102971.56;5017419;28;45537;-69
2022/01/28 01:07:48;;;;;;;;;34.33;31.00;;;;;10.65;72.35;102953.69;5017018;28;46164;-70
2022/01/28 01:10:13;;;;;;;;;37.00;32.00;;;;;10.70;72.56;102961.41;5011740;28;45477;-70
2022/01/28 01:12:43;;;;;;;;;37.67;32.33;;;;;10.69;72.33;102943.72;5017566;28;45468;-70
2022/01/28 01:15:10;;;;;;;;;38.00;32.00;;;;;10.48;72.25;102908.63;5032640;28;45511;-70
2022/01/28 01:17:41;;;;;;;;;36.33;32.00;;;;;10.83;71.93;102959.75;5016935;28;45930;-70
2022/01/28 01:21:13;;;;;;;;;48.00;36.67;;;;;10.84;71.83;102974.75;5032068;28;46331;-72
2022/01/28 01:23:15;;;;;;;;;46.67;37.67;;;;;10.79;71.85;102979.47;5003616;28;45484;-70
2022/01/28 01:25:54;;;;;;;;;44.67;35.33;;;;;10.76;71.84;102983.16;5010403;28;45433;-71
2022/01/28 01:28:22;;;;;;;;;43.00;33.67;;;;;10.74;71.65;102973.56;4998787;28;48500;-70
2022/01/28 01:30:49;;;;;;;;;46.67;36.67;;;;;10.52;71.79;102950.88;5016905;28;45353;-69
2022/01/28 01:33:20;;;;;;;;;41.00;36.00;;;;;10.00;72.07;102878.56;5015468;28;45583;-70
2022/01/28 01:35:46;;;;;;;;;42.00;35.67;;;;;10.62;72.29;102986.66;5015872;28;45384;-69
2022/01/28 01:38:11;;;;;;;;;42.33;34.00;;;;;10.66;71.90;102987.34;5016843;28;45674;-70
2022/01/28 01:40:52;;;;;;;;;43.00;37.00;;;;;10.58;71.98;102977.13;5014278;28;45305;-70
2022/01/28 01:43:32;;;;;;;;;35.67;33.33;;;;;10.48;71.84;102957.34;5015486;28;45531;-73
2022/01/28 01:54:00;;;;;;;;;47.33;37.00;;;;;10.66;72.23;103006.81;5010078;28;45631;-69
2022/01/28 01:56:26;;;;;;;;;42.67;36.00;;;;;10.65;71.90;103002.44;5032204;28;45535;-69
2022/01/28 01:58:52;;;;;;;;;45.67;37.33;;;;;10.53;71.92;102976.53;5008493;28;46147;-71
2022/01/28 02:01:18;;;;;;;;;38.67;35.00;;;;;10.58;71.64;102997.53;5032447;28;45376;-71
2022/01/28 02:03:43;;;;;;;;;50.00;38.33;;;;;10.52;71.51;102992.59;5016810;28;45271;-71
2022/01/28 02:06:10;;;;;;;;;45.33;35.00;;;;;10.43;71.31;102983.34;5017208;28;45410;-69
2022/01/28 02:08:36;;;;;;;;;44.00;37.00;;;;;10.58;71.72;103018.81;5016612;28;46449;-69
2022/01/28 02:11:02;;;;;;;;;46.00;36.00;;;;;10.39;71.55;103003.06;5016102;28;45483;-69
2022/01/28 02:13:35;;;;;;;;;44.33;36.67;;;;;10.47;72.15;103023.91;5016551;28;45543;-68
2022/01/28 02:16:02;;;;;;;;;47.33;38.00;;;;;10.29;71.73;102984.13;5016422;28;45247;-70
2022/01/28 02:18:28;;;;;;;;;40.00;35.00;;;;;10.47;71.61;103011.47;5016546;28;45508;-69
2022/01/28 02:20:58;;;;;;;;;34.67;31.00;;;;;10.57;71.44;103025.09;5006970;28;45522;-69
2022/01/28 02:23:24;;;;;;;;;39.67;34.67;;;;;10.46;72.05;103015.09;4998677;28;45532;-70
2022/01/28 02:25:49;;;;;;;;;45.67;37.67;;;;;10.57;71.46;103025.09;5016457;28;45305;-70
2022/01/28 02:28:19;;;;;;;;;44.33;37.00;;;;;9.91;71.76;102913.66;4995151;28;47865;-70
2022/01/28 02:30:44;;;;;;;;;44.00;37.33;;;;;10.53;71.72;103019.09;5013644;28;45235;-70
2022/01/28 02:33:16;;;;;;;;;46.33;36.33;;;;;10.43;71.10;103012.59;4998405;28;45343;-70
2022/01/28 02:35:44;;;;;;;;;47.00;38.33;;;;;10.51;70.96;103039.59;5014615;28;45726;-70
2022/01/28 02:38:11;;;;;;;;;44.33;36.67;;;;;10.39;71.02;103012.84;5015857;28;45745;-70
2022/01/28 02:40:37;;;;;;;;;51.00;40.00;;;;;9.97;70.94;102935.41;5016085;28;45226;-69
2022/01/28 02:43:31;;;;;;;;;44.33;34.67;;;;;10.51;70.95;103039.59;4996998;28;45272;-69
2022/01/28 02:45:50;;;;;;;;;47.67;38.33;;;;;10.44;70.88;103032.94;5015854;28;45661;-70
2022/01/28 02:48:23;;;;;;;;;49.00;39.67;;;;;10.42;71.31;103041.94;5006998;28;48340;-70
2022/01/28 02:51:05;;;;;;;;;47.33;37.33;;;;;10.28;71.03;103002.84;5002405;28;45554;-70
2022/01/28 02:56:16;;;;;;;;;47.00;39.00;;;;;10.33;71.07;103022.03;5016084;28;45215;-69
2022/01/28 02:58:43;;;;;;;;;48.00;40.00;;;;;10.39;70.77;103036.78;5015639;28;46854;-69
2022/01/28 03:01:12;;;;;;;;;44.33;32.33;;;;;10.38;71.14;103041.22;4997561;28;45410;-69
2022/01/28 03:03:43;;;;;;;;;48.67;38.00;;;;;10.35;71.17;103041.41;5031152;28;45238;-69
2022/01/28 03:06:09;;;;;;;;;46.00;38.33;;;;;9.84;70.95;102971.59;5015745;28;45369;-69
2022/01/28 03:08:35;;;;;;;;;47.67;36.33;;;;;10.27;71.30;103030.38;4997607;28;46572;-70
2022/01/28 03:16:28;;;;;;;;;42.00;34.00;;;;;9.86;71.53;103012.22;5015610;28;45522;-70
2022/01/28 03:23:53;;;;;;;;;46.33;37.67;;;;;9.87;71.39;102990.03;5015886;28;45348;-70
2022/01/28 03:26:19;;;;;;;;;39.67;35.00;;;;;9.96;71.59;103010.75;5015631;28;45346;-69
2022/01/28 03:28:44;;;;;;;;;48.33;39.00;;;;;9.96;71.14;103015.22;5014992;28;45548;-69
2022/01/28 03:31:10;;;;;;;;;50.67;39.33;;;;;9.99;71.42;103028.31;5013686;28;45356;-70
2022/01/28 03:33:36;;;;;;;;;42.67;36.67;;;;;9.98;71.40;103024.81;4998020;28;45226;-70
2022/01/28 03:36:04;;;;;;;;;41.67;33.33;;;;;9.99;71.11;103023.88;5015827;28;45254;-70
2022/01/28 03:38:30;;;;;;;;;41.33;34.67;;;;;10.00;71.40;103025.59;5014916;28;46417;-70
2022/01/28 03:40:56;;;;;;;;;42.67;34.00;;;;;10.03;70.90;103020.13;5015344;28;45440;-70
2022/01/28 03:43:23;;;;;;;;;37.67;33.33;;;;;9.90;70.81;103000.47;5015297;28;45499;-70
2022/01/28 03:45:48;;;;;;;;;45.00;36.67;;;;;9.95;70.79;103032.09;5016361;28;45486;-68
2022/01/28 03:48:14;;;;;;;;;43.67;37.00;;;;;9.67;70.92;102984.94;5018269;28;46297;-70
2022/01/28 03:50:39;;;;;;;;;45.67;36.67;;;;;9.97;70.64;103030.22;5018456;28;45488;-70
2022/01/28 03:53:06;;;;;;;;;42.00;36.33;;;;;9.88;70.64;103028.94;5017436;28;45434;-70
2022/01/28 03:55:32;;;;;;;;;51.00;41.00;;;;;9.79;71.62;103042.69;4998490;28;45267;-70
2022/01/28 03:57:57;;;;;;;;;55.00;44.50;;;;;9.64;72.07;103039.09;5018569;28;46287;-71
2022/01/28 04:00:26;;;;;;;;;55.75;45.25;;;;;9.51;72.02;103026.53;5018638;28;45247;-68
2022/01/28 04:03:02;;;;;;;;;52.25;41.75;;;;;9.70;72.46;103065.31;5026016;28;45393;-70
2022/01/28 04:13:49;;;;;;;;;57.25;46.50;;;;;9.43;72.61;103049.06;5008636;28;45626;-69
2022/01/28 04:16:31;;;;;;;;;60.50;48.25;;;;;9.57;72.91;103074.84;5018443;28;45761;-68
2022/01/28 04:19:01;;;;;;;;;58.00;43.00;;;;;9.59;73.07;103078.28;5004881;28;48123;-70
2022/01/28 04:21:27;;;;;;;;;53.75;42.25;;;;;9.58;73.20;103073.91;5017976;28;45503;-70
2022/01/28 04:23:53;;;;;;;;;58.50;47.00;;;;;9.45;73.27;103052.47;5033261;28;45360;-69
2022/01/28 04:26:18;;;;;;;;;54.75;45.50;;;;;9.54;73.11;103072.38;5005978;28;45236;-68
2022/01/28 04:28:45;;;;;;;;;62.50;48.75;;;;;9.45;73.39;103057.78;4999598;28;48905;-69
2022/01/28 04:31:10;;;;;;;;;57.00;45.50;;;;;9.45;73.36;103065.75;5016117;28;45770;-69
2022/01/28 04:33:36;;;;;;;;;57.50;44.00;;;;;9.43;73.91;103069.44;5033234;28;45263;-71
2022/01/28 04:36:02;;;;;;;;;57.50;44.25;;;;;9.49;73.20;103065.59;5018204;28;45547;-71
2022/01/28 04:38:35;;;;;;;;;56.50;46.50;;;;;9.50;73.68;103075.28;4999600;28;46867;-70
2022/01/28 04:41:19;;;;;;;;;60.25;47.00;;;;;9.42;73.20;103068.56;5015843;28;45415;-70
2022/01/28 04:43:51;;;;;;;;;51.75;41.25;;;;;9.43;73.29;103072.09;5033029;28;45499;-70
2022/01/28 04:49:01;;;;;;;;;57.75;44.75;;;;;9.16;74.04;103042.50;5017225;28;45495;-69
2022/01/28 04:59:42;;;;;;;;;59.00;48.00;;;;;9.38;73.33;103064.34;5016518;28;46837;-70
2022/01/28 05:28:40;;;;;;;;;53.75;45.00;;;;;9.73;72.86;103114.75;5017584;28;45274;-69
2022/01/28 05:31:06;;;;;;;;;54.25;45.00;;;;;9.68;72.74;103106.19;5016760;28;45532;-73
2022/01/28 05:33:31;;;;;;;;;51.25;42.00;;;;;9.63;72.87;103102.91;4999032;28;45506;-70
2022/01/28 05:35:56;;;;;;;;;52.50;42.50;;;;;9.42;72.71;103060.63;5016858;28;45542;-70
2022/01/28 05:38:22;;;;;;;;;50.67;38.67;;;;;9.81;72.29;103133.84;5016914;28;45556;-69
2022/01/28 05:40:47;;;;;;;;;42.00;36.67;;;;;9.79;72.58;103122.41;5016597;28;45305;-69
2022/01/28 05:43:13;;;;;;;;;48.33;39.33;;;;;9.80;71.87;103118.81;5016612;28;45306;-68
2022/01/28 05:45:38;;;;;;;;;44.00;38.00;;;;;9.76;71.35;103111.94;5017136;28;45649;-69
2022/01/28 05:48:04;;;;;;;;;52.33;37.67;;;;;9.88;71.69;103135.22;5016334;28;45299;-70
2022/01/28 05:50:29;;;;;;;;;49.67;38.00;;;;;9.84;71.50;103128.34;5016706;28;46089;-71
2022/01/28 05:52:54;;;;;;;;;43.67;34.67;;;;;9.88;71.45;103132.56;5016718;28;45332;-69
2022/01/28 05:55:20;;;;;;;;;42.33;36.00;;;;;9.85;71.18;103127.41;4995938;28;45247;-70
2022/01/28 05:57:45;;;;;;;;;47.67;38.33;;;;;9.95;70.74;103141.91;4999081;28;45532;-70
2022/01/28 06:00:11;;;;;;;;;48.67;36.67;;;;;9.90;70.28;103136.00;5015905;28;45617;-70
2022/01/28 06:02:36;;;;;;;;;46.67;37.33;;;;;10.00;70.33;103163.78;4998901;28;45357;-70
2022/01/28 06:05:02;;;;;;;;;59.00;45.25;;;;;9.64;70.47;103128.53;5016749;28;45351;-74
2022/01/28 06:07:27;;;;;;;;;43.75;35.50;;;;;9.72;71.27;103175.00;5014736;28;45598;-70
2022/01/28 06:09:53;;;;;;;;;64.75;49.75;;;;;9.56;71.57;103173.19;5015127;28;45459;-69
2022/01/28 06:12:20;;;;;;;;;55.75;44.25;;;;;9.25;72.08;103145.56;5015992;28;45369;-71
2022/01/28 06:14:45;;;;;;;;;64.00;49.25;;;;;9.27;72.32;103156.09;5016551;28;45357;-70
2022/01/28 06:17:11;;;;;;;;;60.75;47.25;;;;;9.34;72.17;103163.66;5016184;28;45226;-74
2022/01/28 06:19:36;;;;;;;;;67.25;50.50;;;;;9.25;71.99;103147.34;4995172;28;48127;-69
2022/01/28 06:22:02;;;;;;;;;59.50;49.50;;;;;8.52;71.72;103035.97;4996504;28;45659;-70
2022/01/28 06:24:28;;;;;;;;;69.00;51.50;;;;;9.21;72.45;103162.59;4996364;28;45266;-70
2022/01/28 06:26:54;;;;;;;;;59.75;48.75;;;;;9.22;72.50;103174.06;4997033;28;45280;-70
2022/01/28 06:29:20;;;;;;;;;57.75;47.25;;;;;9.08;72.73;103150.84;4996625;28;45548;-71
2022/01/28 06:31:46;;;;;;;;;66.25;50.00;;;;;9.26;72.48;103165.84;4995530;28;45195;-71
2022/01/28 06:34:12;;;;;;;;;64.75;46.75;;;;;9.11;72.08;103137.41;5027707;28;45547;-73
2022/01/28 06:36:37;;;;;;;;;62.00;49.50;;;;;9.14;72.48;103135.47;4995646;28;45556;-71
2022/01/28 06:39:03;;;;;;;;;64.00;49.25;;;;;9.31;72.61;103168.28;4994508;28;47436;-71
2022/01/28 06:41:30;;;;;;;;;62.00;49.00;;;;;9.29;71.50;103171.00;4995463;28;45607;-70
2022/01/28 06:43:56;;;;;;;;;62.00;46.75;;;;;9.04;72.28;103133.34;4994833;28;45611;-71
2022/01/28 06:46:22;;;;;;;;;60.75;49.50;;;;;9.08;72.39;103143.75;4996901;28;45575;-70
2022/01/28 06:48:47;;;;;;;;;63.00;49.25;;;;;8.72;72.42;103096.00;4996191;28;46003;-71
2022/01/28 06:51:12;;;;;;;;;72.00;51.50;;;;;9.05;72.36;103151.84;4998206;28;45320;-71
2022/01/28 06:53:38;;;;;;;;;60.75;47.50;;;;;9.11;72.62;103178.09;4996104;28;45510;-72
2022/01/28 06:56:04;;;;;;;;;61.50;48.25;;;;;9.12;72.75;103178.94;4994244;28;45580;-69
2022/01/28 06:58:29;;;;;;;;;62.00;46.75;;;;;9.22;72.31;103180.22;4995888;28;45538;-71
2022/01/28 07:00:54;;;;;;;;;56.75;46.75;;;;;9.09;72.18;103147.25;4996032;28;45572;-71
2022/01/28 07:03:20;;;;;;;;;57.50;45.25;;;;;9.29;72.48;103171.00;5027660;28;45363;-70
2022/01/28 07:05:45;;;;;;;;;56.75;44.00;;;;;9.42;72.26;103182.75;4995014;28;45492;-70
2022/01/28 07:08:11;;;;;;;;;58.00;46.75;;;;;9.37;71.79;103176.78;4995461;28;45984;-72
2022/01/28 07:10:36;;;;;;;;;64.75;49.00;;;;;9.45;72.38;103193.22;4995607;28;45341;-70
2022/01/28 07:13:02;;;;;;;;;59.00;47.00;;;;;9.36;71.94;103172.41;4996006;28;46130;-70
2022/01/28 07:15:28;;;;;;;;;60.25;46.00;;;;;9.39;72.01;103168.75;4996215;28;45334;-76
2022/01/28 07:17:56;;;;;;;;;58.50;46.25;;;;;9.47;71.82;103179.84;4996848;28;45484;-75
2022/01/28 07:20:21;;;;;;;;;56.75;47.50;;;;;9.00;72.03;103107.88;5026369;28;45569;-71
2022/01/28 07:22:47;;;;;;;;;58.50;46.25;;;;;9.48;71.89;103194.00;4995554;28;45529;-72
2022/01/28 07:25:13;;;;;;;;;60.50;46.50;;;;;9.41;71.79;103175.72;5031305;28;45503;-72
2022/01/28 07:27:39;;;;;;;;;56.00;45.50;;;;;9.55;71.38;103198.03;4998979;28;45647;-70
2022/01/28 07:30:06;;;;;;;;;59.75;46.00;;;;;9.60;71.48;103211.94;4999273;28;45325;-72
2022/01/28 07:32:32;;;;;;;;;63.00;46.50;;;;;9.57;71.36;103209.44;4997489;28;45516;-72
2022/01/28 07:34:57;;;;;;;;;58.00;45.75;;;;;9.50;71.24;103208.91;4994252;28;45334;-72
2022/01/28 07:37:23;;;;;;;;;53.00;44.00;;;;;9.41;71.03;103185.44;5010182;28;48050;-71
2022/01/28 07:39:50;;;;;;;;;59.50;46.50;;;;;9.49;71.21;103193.06;5013812;28;45507;-72
2022/01/28 07:42:17;;;;;;;;;48.50;39.75;;;;;9.60;71.01;103211.94;5030934;28;45575;-70
2022/01/28 07:44:42;;;;;;;;;54.75;44.00;;;;;9.67;70.71;103229.31;4999316;28;45615;-72
2022/01/28 07:47:08;;;;;;;;;58.50;46.50;;;;;8.92;70.77;103096.81;4998708;28;45583;-71
2022/01/28 07:49:33;;;;;;;;;60.75;47.50;;;;;9.63;70.87;103222.44;4998653;28;45357;-72
2022/01/28 07:51:59;;;;;;;;;58.50;46.00;;;;;9.49;70.74;103209.84;4996924;28;45346;-72
2022/01/28 07:54:24;;;;;;;;;56.00;43.25;;;;;9.52;70.80;103215.00;4998079;28;45336;-72
2022/01/28 07:56:53;;;;;;;;;60.00;48.75;;;;;9.66;71.12;103246.19;4996094;28;47188;-71
2022/01/28 07:59:19;;;;;;;;;58.75;46.75;;;;;9.61;71.14;103232.25;4995829;28;45525;-72
2022/01/28 08:01:44;;;;;;;;;70.00;51.75;;;;;9.63;70.98;103235.72;4994152;28;45690;-72
2022/01/28 08:04:10;;;;;;;;;58.25;48.25;;;;;9.63;70.65;103236.56;5029607;28;45788;-72
2022/01/28 08:06:35;;;;;;;;;65.75;47.50;;;;;9.59;70.59;103231.47;4997761;28;45333;-71
2022/01/28 08:09:01;;;;;;;;;59.75;45.00;;;;;9.69;70.43;103251.34;4998040;28;45478;-73
2022/01/28 08:11:27;;;;;;;;;62.25;47.50;;;;;9.58;70.20;103235.06;4997564;28;45506;-72
2022/01/28 08:13:52;;;;;;;;;60.50;46.25;;;;;9.08;70.27;103145.53;4998534;28;45480;-71
2022/01/28 08:16:17;;;;;;;;;60.25;47.75;;;;;8.99;70.26;103120.28;4998629;28;45506;-71
2022/01/28 08:18:43;;;;;;;;;59.25;46.50;;;;;9.62;70.03;103216.25;4999056;28;45427;-73
2022/01/28 08:21:09;;;;;;;;;60.50;45.50;;;;;9.87;70.13;103257.53;5013449;28;45492;-71
2022/01/28 08:23:35;;;;;;;;;55.00;43.25;;;;;9.48;69.81;103186.03;4997161;28;45599;-72
2022/01/28 08:26:01;;;;;;;;;60.50;47.75;;;;;9.94;69.78;103265.09;4998957;28;46793;-73
2022/01/28 08:28:26;;;;;;;;;56.00;46.00;;;;;9.85;69.95;103241.66;4999417;28;45318;-73
2022/01/28 08:30:53;;;;;;;;;60.75;49.00;;;;;9.69;69.62;103211.50;4998677;28;45684;-72
2022/01/28 08:33:18;;;;;;;;;60.00;47.00;;;;;10.06;69.57;103267.13;4997887;28;45560;-72
2022/01/28 08:35:51;;;;;;;;;54.50;38.75;;;;;10.08;68.97;103272.38;4997958;28;45473;-72
2022/01/28 08:38:24;;;;;;;;;56.00;44.00;;;;;10.12;69.01;103278.38;4996485;28;46062;-73
2022/01/28 08:40:53;;;;;;;;;53.25;40.75;;;;;10.19;68.52;103282.44;5029642;28;45363;-71
2022/01/28 08:43:20;;;;;;;;;51.00;41.00;;;;;10.14;68.43;103269.38;4998064;28;45550;-71
2022/01/28 08:45:46;;;;;;;;;47.75;40.75;;;;;9.61;68.00;103177.38;5029648;28;46735;-72
2022/01/28 08:48:11;;;;;;;;;49.75;38.75;;;;;10.35;67.77;103300.19;4997772;28;45830;-72
2022/01/28 08:50:37;;;;;;;;;48.25;40.25;;;;;10.38;67.11;103307.16;4998238;28;45861;-72
2022/01/28 08:53:02;;;;;;;;;51.25;42.00;;;;;10.41;67.60;103311.44;5029844;28;45205;-72
2022/01/28 08:55:29;;;;;;;;;45.33;38.33;;;;;10.44;66.97;103298.88;4997864;28;45444;-72
2022/01/28 08:57:54;;;;;;;;;54.00;40.00;;;;;10.42;67.19;103303.41;4999013;28;45360;-72
2022/01/28 09:00:22;;;;;;;;;51.75;41.00;;;;;10.53;67.01;103327.63;5029779;28;45234;-72
2022/01/28 09:02:49;;;;;;;;;45.00;36.67;;;;;10.53;66.50;103318.81;4998019;28;45535;-74
2022/01/28 09:05:15;;;;;;;;;42.33;35.33;;;;;10.53;66.11;103310.81;4996598;28;48414;-72
2022/01/28 09:07:40;;;;;;;;;45.00;34.67;;;;;10.68;64.92;103325.97;4997432;28;45463;-71
2022/01/28 09:10:17;;;;;;;;;44.00;35.33;;;;;10.77;65.00;103341.44;4996366;28;45571;-72
2022/01/28 09:12:49;;;;;;;;;49.67;40.00;;;;;10.74;64.45;103320.31;5011787;28;45531;-74
2022/01/28 09:15:15;;;;;;;;;39.33;33.33;;;;;10.83;64.21;103335.81;4996564;28;46047;-72
2022/01/28 09:17:41;;;;;;;;;41.33;33.67;;;;;10.86;63.65;103334.78;4995659;28;45318;-75
2022/01/28 09:20:07;;;;;;;;;32.00;28.33;;;;;10.84;63.60;103323.38;5005357;28;45503;-73
2022/01/28 09:22:32;;;;;;;;;35.33;32.00;;;;;10.87;63.29;103323.19;4999908;28;45536;-73
2022/01/28 09:24:58;;;;;;;;;43.33;33.00;;;;;10.95;63.06;103335.13;5017992;28;46495;-76
2022/01/28 09:27:23;;;;;;;;;42.00;34.67;;;;;11.03;63.19;103332.06;5016055;28;45717;-73
2022/01/28 09:29:49;;;;;;;;;33.67;29.67;;;;;10.85;62.72;103285.16;5003676;28;45320;-72
2022/01/28 09:32:16;;;;;;;;;41.00;34.00;;;;;11.17;62.57;103332.16;5017491;28;45361;-75
2022/01/28 09:34:43;;;;;;;;;36.33;32.67;;;;;10.97;62.34;103289.78;5006171;28;45443;-71
2022/01/28 09:37:12;;;;;;;;;44.67;33.67;;;;;11.26;62.06;103336.13;5017085;28;45496;-73
2022/01/28 09:39:43;;;;;;;;;42.67;35.67;;;;;11.35;61.78;103342.72;4999613;28;45343;-73
2022/01/28 09:42:14;;;;;;;;;43.67;34.33;;;;;11.43;62.14;103348.50;5017163;28;45389;-74
2022/01/28 09:44:40;;;;;;;;;37.33;33.00;;;;;11.37;61.37;103324.84;5016340;28;46475;-72
2022/01/28 09:47:06;;;;;;;;;38.00;32.67;;;;;11.50;61.09;103341.88;5011656;28;45674;-71
2022/01/28 09:49:32;;;;;;;;;42.00;33.33;;;;;11.56;61.20;103346.84;5016905;28;45548;-73
2022/01/28 09:51:58;;;;;;;;;43.67;36.00;;;;;11.55;61.09;103345.13;4999298;28;45452;-74
2022/01/28 09:54:24;;;;;;;;;37.00;32.00;;;;;11.67;61.13;103343.59;5016903;28;46666;-73
2022/01/28 09:56:52;;;;;;;;;31.00;28.67;;;;;11.54;60.53;103308.78;5016457;28;45267;-75
2022/01/28 09:59:17;;;;;;;;;32.33;28.00;;;;;11.64;59.83;103327.78;4998607;28;45497;-72
2022/01/28 10:01:50;;;;;;;;;40.00;33.33;;;;;11.53;59.84;103307.91;4999154;28;45433;-73
2022/01/28 10:04:17;;;;;;;;;33.33;27.67;;;;;11.70;59.71;103322.09;4997636;28;47178;-71
2022/01/28 10:06:44;;;;;;;;;37.00;31.33;;;;;11.73;59.48;103337.91;5015051;28;45440;-73
2022/01/28 10:09:11;;;;;;;;;29.00;26.00;;;;;11.65;59.53;103341.00;5015765;28;45421;-72
2022/01/28 10:11:39;;;;;;;;;31.00;27.33;;;;;11.69;59.61;103339.88;4999323;28;45482;-72
2022/01/28 10:14:15;;;;;;;;;33.33;28.00;;;;;11.64;59.86;103330.44;5016271;28;45533;-73
2022/01/28 10:16:41;;;;;;;;;28.67;25.67;;;;;11.69;60.18;103331.03;5030428;28;45515;-72
2022/01/28 10:19:11;;;;;;;;;38.33;32.00;;;;;11.77;59.63;103345.63;5030873;28;45475;-72
2022/01/28 10:21:42;;;;;;;;;32.33;28.00;;;;;11.11;59.76;103227.81;5014989;28;45657;-72
2022/01/28 10:24:12;;;;;;;;;38.33;30.33;;;;;11.74;59.51;103347.59;5014439;28;47566;-73
2022/01/28 10:26:37;;;;;;;;;29.00;22.00;;;;;11.73;59.87;103349.41;5015339;28;45429;-72
2022/01/28 10:29:14;;;;;;;;;34.33;30.67;;;;;11.69;60.24;103352.34;4998087;28;45665;-74
2022/01/28 10:31:45;;;;;;;;;37.00;31.67;;;;;11.70;59.93;103356.72;5012866;28;45354;-72
2022/01/28 10:34:19;;;;;;;;;31.33;29.33;;;;;11.64;60.55;103360.63;5016148;28;46131;-73
2022/01/28 10:36:46;;;;;;;;;29.00;28.33;;;;;11.44;60.45;103342.22;5016384;28;45501;-73
2022/01/28 10:39:23;;;;;;;;;36.33;30.00;;;;;11.41;60.66;103347.69;5016109;28;45325;-72
2022/01/28 10:41:58;;;;;;;;;39.00;31.00;;;;;11.47;60.97;103363.38;4998474;28;45497;-72
2022/01/28 10:44:27;;;;;;;;;41.67;31.00;;;;;11.36;61.06;103341.78;5015883;28;45791;-72
2022/01/28 10:46:56;;;;;;;;;36.00;29.00;;;;;10.83;61.07;103261.28;4998350;28;45528;-73
2022/01/28 10:49:28;;;;;;;;;35.00;29.67;;;;;11.31;60.67;103363.34;5013105;28;45238;-74
2022/01/28 10:51:53;;;;;;;;;33.00;29.67;;;;;11.33;60.52;103366.78;5016440;28;45581;-71
2022/01/28 10:54:23;;;;;;;;;32.33;28.67;;;;;11.28;60.30;103363.53;5015744;28;46583;-74
2022/01/28 10:56:48;;;;;;;;;30.67;27.00;;;;;11.42;60.72;103382.28;5014830;28;45664;-73
2022/01/28 10:59:17;;;;;;;;;32.33;30.00;;;;;11.40;59.55;103388.59;5019702;28;45270;-73
2022/01/28 11:01:44;;;;;;;;;28.33;23.00;;;;;11.41;59.67;103390.31;5011327;28;45354;-73
2022/01/28 11:04:11;;;;;;;;;30.33;28.67;;;;;11.41;59.37;103383.22;5019373;28;46353;-73
2022/01/28 11:06:38;;;;;;;;;33.00;29.33;;;;;11.41;59.36;103379.66;5015149;28;45412;-71
2022/01/28 11:09:03;;;;;;;;;29.00;21.67;;;;;10.81;59.28;103278.25;5018540;28;45541;-72
2022/01/28 11:11:29;;;;;;;;;28.00;23.33;;;;;11.40;59.11;103372.63;5000562;28;45622;-72
2022/01/28 11:13:55;;;;;;;;;25.67;21.67;;;;;11.46;59.24;103382.97;5018797;28;45694;-72
2022/01/28 11:16:23;;;;;;;;;30.67;25.67;;;;;11.47;59.09;103374.03;5000816;28;45540;-73
2022/01/28 11:18:48;;;;;;;;;35.33;26.33;;;;;11.31;58.75;103351.84;5018950;28;45511;-73
2022/01/28 11:21:17;;;;;;;;;25.33;23.33;;;;;11.37;58.20;103367.47;5018981;28;45535;-72
2022/01/28 11:24:06;;;;;;;;;28.00;23.67;;;;;11.32;58.94;103372.19;5018688;28;46124;-71
2022/01/28 11:26:55;;;;;;;;;27.33;27.33;;;;;10.64;58.73;103258.78;5019297;28;45495;-71
2022/01/28 11:29:28;;;;;;;;;30.33;26.67;;;;;11.16;59.70;103370.38;5029665;28;45306;-73
2022/01/28 11:31:56;;;;;;;;;28.00;27.33;;;;;9.90;59.54;103167.88;5019632;28;45262;-72
2022/01/28 11:34:23;;;;;;;;;27.67;23.67;;;;;11.18;59.81;103365.81;5001636;28;47565;-72
2022/01/28 11:36:50;;;;;;;;;34.00;28.67;;;;;11.07;59.78;103349.59;5018904;28;45376;-71
2022/01/28 11:39:41;;;;;;;;;30.33;27.33;;;;;10.98;59.67;103334.97;5019206;28;46316;-72
2022/01/28 11:42:23;;;;;;;;;31.33;27.33;;;;;11.21;60.01;103363.00;5019182;28;45472;-71
2022/01/28 11:44:54;;;;;;;;;32.67;30.33;;;;;10.64;59.68;103261.44;5018810;28;46391;-71
2022/01/28 11:47:30;;;;;;;;;31.00;27.33;;;;;11.13;59.91;103327.09;5018913;28;45638;-70
2022/01/28 11:49:55;;;;;;;;;37.00;33.67;;;;;11.27;60.00;103344.03;5001164;28;45430;-72
2022/01/28 11:52:31;;;;;;;;;35.33;26.00;;;;;11.12;60.70;103323.56;5001535;28;45568;-72
2022/01/28 11:55:25;;;;;;;;;42.67;35.33;;;;;11.17;60.28;103329.47;5000634;28;47466;-71
2022/01/28 11:58:06;;;;;;;;;30.00;28.00;;;;;11.15;60.46;103336.69;5018389;28;45357;-72
2022/01/28 12:00:45;;;;;;;;;37.33;31.00;;;;;11.12;61.07;103336.88;5016455;28;45464;-72
2022/01/28 12:03:26;;;;;;;;;27.33;26.33;;;;;10.95;60.77;103299.66;5017072;28;45310;-72
2022/01/28 12:05:52;;;;;;;;;28.00;25.33;;;;;11.27;59.98;103333.38;5017505;28;47384;-70
2022/01/28 12:08:19;;;;;;;;;27.00;17.00;;;;;11.25;59.59;103316.63;5016877;28;45515;-72
2022/01/28 12:10:47;;;;;;;;;33.67;27.67;;;;;10.95;59.67;103267.72;5018820;28;45510;-70
2022/01/28 12:13:17;;;;;;;;;24.67;21.33;;;;;11.12;59.23;103309.38;5019339;28;45435;-71
2022/01/28 12:18:53;;;;;;;;;25.00;24.33;;;;;10.89;59.32;103292.88;5001010;28;46918;-72
2022/01/28 12:21:25;;;;;;;;;32.00;27.33;;;;;10.88;59.78;103314.25;5018532;28;45471;-72
2022/01/28 12:23:53;;;;;;;;;26.33;24.67;;;;;10.90;59.98;103309.72;5019035;28;45605;-72
2022/01/28 12:26:20;;;;;;;;;29.67;24.67;;;;;10.74;60.09;103266.25;5000230;28;48844;-73
2022/01/28 12:28:56;;;;;;;;;22.00;17.00;;;;;10.90;60.10;103283.97;5000309;28;46212;-72
2022/01/28 12:31:25;;;;;;;;;26.67;23.33;;;;;10.64;59.47;103231.31;5017791;28;45211;-71
2022/01/28 12:33:54;;;;;;;;;23.33;19.33;;;;;10.82;59.42;103237.44;5008861;28;45471;-72
2022/01/28 12:36:23;;;;;;;;;22.33;20.67;;;;;11.08;59.18;103271.44;5017774;28;47068;-71
2022/01/28 12:39:12;;;;;;;;;23.67;22.00;;;;;11.15;58.96;103263.94;5033390;28;46382;-71
2022/01/28 12:41:52;;;;;;;;;24.67;24.67;;;;;11.20;58.91;103264.53;5010412;28;45339;-72
2022/01/28 12:44:17;;;;;;;;;30.67;25.67;;;;;11.30;58.78;103270.22;5015982;28;45478;-73
2022/01/28 12:46:58;;;;;;;;;26.33;23.67;;;;;11.32;58.66;103284.31;5017974;28;45452;-72
2022/01/28 12:49:25;;;;;;;;;29.00;27.67;;;;;11.37;58.49;103282.25;5018084;28;45409;-72